North Kansas City, Missouri
Current Conditions -  °F | °C
As of 1:54 PM on Wednesday 28 Jan 2015 (Local Time) from KMKC Reporting Station
Clear Clear  
Wind Chill: 75°   Ceiling: Unl
Heat Index: 75°   Visibility: 10mi
Dew Point: 36°   Wind: 18mph
Humidity: 24%   Direction: 190°S
Pressure: 29.75"   Gusts: 28mph
Location:  39.1494°N, 94.5733°W
Report Text: KMKC 281954Z 19016G24KT 10SM CLR 24/02 A2975 RMK AO2 SLP070 T02390022
Loading
Personal Weather Stations






























Interactive Weather Map New forecast layout! Learn more

10-Day Weather Forecast

Advertisements
Track Severe Weather on mobile